Time;durP1;ratioP1;P1;durP2;ratioP2;P2;SDS_P1;SDS_P2;PMS_P1;PMS_P2;Temp;Humidity;BMP_temperature;BMP_pressure;BME280_temperature;BME280_humidity;BME280_pressure;Samples;Min_cycle;Max_cycle;Signal;HPM_P1;HPM_P2
2023/04/12 00:00:09;;;;;;;5.75;1.30;;;;;;;;;;5042159;27;93945;-80
2023/04/12 00:02:36;;;;;;;6.13;1.42;;;;;;;;;;5060842;27;92693;-79
2023/04/12 00:05:03;;;;;;;3.60;1.20;;;;;;;;;;5043254;27;92701;-79
2023/04/12 00:07:29;;;;;;;6.45;1.38;;;;;;;;;;5060497;27;93557;-79
2023/04/12 00:09:56;;;;;;;6.20;1.50;;;;;;;;;;5061016;27;92512;-79
2023/04/12 00:12:23;;;;;;;5.78;1.60;;;;;;;;;;5055555;27;94538;-79
2023/04/12 00:14:50;;;;;;;6.57;1.20;;;;;;;;;;5028668;27;92692;-79
2023/04/12 00:17:18;;;;;;;3.88;1.30;;;;;;;;;;5060145;27;92714;-80
2023/04/12 00:19:46;;;;;;;5.65;1.50;;;;;;;;;;5040940;27;92958;-79
2023/04/12 00:22:13;;;;;;;6.85;1.45;;;;;;;;;;5040787;27;92770;-79
2023/04/12 00:24:40;;;;;;;5.25;1.10;;;;;;;;;;5060419;27;92751;-78
2023/04/12 00:27:07;;;;;;;5.18;1.20;;;;;;;;;;5059814;27;92680;-78
2023/04/12 00:29:34;;;;;;;6.20;1.38;;;;;;;;;;5042539;27;91436;-78
2023/04/12 00:32:02;;;;;;;4.95;1.20;;;;;;;;;;5041561;27;95187;-79
2023/04/12 00:34:29;;;;;;;;;;;;;;;;;;5041993;27;94883;-79
2023/04/12 00:36:55;;;;;;;4.28;1.33;;;;;;;;;;5062816;27;95153;-79
2023/04/12 00:39:22;;;;;;;4.75;1.17;;;;;;;;;;5060249;27;92339;-79
2023/04/12 00:41:48;;;;;;;4.45;0.95;;;;;;;;;;5041373;27;92461;-79
2023/04/12 00:44:16;;;;;;;4.07;1.00;;;;;;;;;;5058965;27;93205;-79
2023/04/12 00:46:44;;;;;;;3.45;1.00;;;;;;;;;;5040618;27;95407;-80
2023/04/12 00:49:11;;;;;;;;;;;;;;;;;;5060213;27;92165;-78
2023/04/12 00:51:38;;;;;;;4.50;1.00;;;;;;;;;;5060293;27;117712;-79
2023/04/12 00:54:05;;;;;;;3.22;1.00;;;;;;;;;;5062299;27;92164;-78
2023/04/12 00:56:32;;;;;;;4.90;1.00;;;;;;;;;;5044348;27;94791;-79
2023/04/12 00:58:59;;;;;;;4.20;1.10;;;;;;;;;;5047715;27;94738;-79
2023/04/12 01:01:27;;;;;;;2.30;0.95;;;;;;;;;;5042480;27;94940;-79
2023/04/12 01:03:59;;;;;;;4.47;1.10;;;;;;;;;;5053104;27;97495;-80
2023/04/12 01:06:35;;;;;;;5.47;1.15;;;;;;;;;;5004259;28;97064;-78
2023/04/12 01:09:17;;;;;;;4.15;1.08;;;;;;;;;;5031041;28;92254;-78
2023/04/12 01:11:45;;;;;;;4.95;1.20;;;;;;;;;;5048014;27;94159;-79
2023/04/12 01:14:12;;;;;;;4.53;1.20;;;;;;;;;;5038589;27;95114;-80
2023/04/12 01:16:46;;;;;;;4.95;1.40;;;;;;;;;;5039611;27;92697;-79
2023/04/12 01:19:35;;;;;;;4.60;1.20;;;;;;;;;;5039878;28;94490;-80
2023/04/12 01:22:15;;;;;;;4.75;1.30;;;;;;;;;;5010344;27;94793;-79
2023/04/12 01:24:42;;;;;;;;;;;;;;;;;;5037928;28;95247;-80
2023/04/12 01:27:12;;;;;;;4.53;1.20;;;;;;;;;;5041423;27;95424;-79
2023/04/12 01:29:39;;;;;;;3.17;1.20;;;;;;;;;;5047889;27;92203;-79
2023/04/12 01:32:07;;;;;;;4.28;1.30;;;;;;;;;;5037106;27;92408;-79
2023/04/12 01:34:34;;;;;;;4.63;1.42;;;;;;;;;;5054355;27;93181;-79
2023/04/12 01:37:01;;;;;;;4.05;1.10;;;;;;;;;;5057492;27;92018;-80
2023/04/12 01:39:29;;;;;;;4.47;1.20;;;;;;;;;;5054546;27;92493;-79
2023/04/12 01:41:56;;;;;;;4.55;1.33;;;;;;;;;;5042936;27;92578;-80
2023/04/12 01:44:22;;;;;;;4.25;1.17;;;;;;;;;;5029992;27;91446;-78
2023/04/12 01:46:51;;;;;;;3.42;1.00;;;;;;;;;;5043305;27;95221;-80
2023/04/12 01:49:18;;;;;;;;;;;;;;;;;;5044789;27;92472;-79
2023/04/12 01:51:48;;;;;;;5.13;1.30;;;;;;;;;;5042831;27;121000;-79
2023/04/12 01:54:21;;;;;;;4.30;1.42;;;;;;;;;;5042719;27;93872;-80
2023/04/12 01:56:52;;;;;;;4.15;1.13;;;;;;;;;;5041907;27;92485;-79
2023/04/12 01:59:20;;;;;;;3.53;1.10;;;;;;;;;;5057232;27;94895;-79
2023/04/12 02:01:47;;;;;;;3.20;1.00;;;;;;;;;;5034897;27;92671;-80
2023/04/12 02:04:14;;;;;;;6.53;1.30;;;;;;;;;;5041297;27;92149;-79
2023/04/12 02:06:42;;;;;;;2.63;1.10;;;;;;;;;;5029788;27;93187;-80
2023/04/12 02:09:09;;;;;;;3.85;1.05;;;;;;;;;;5041461;27;91788;-79
2023/04/12 02:11:35;;;;;;;3.35;1.08;;;;;;;;;;5021390;28;93692;-79
2023/04/12 02:14:02;;;;;;;3.58;1.02;;;;;;;;;;5039359;27;95429;-78
2023/04/12 02:16:28;;;;;;;4.82;1.33;;;;;;;;;;5039752;27;94716;-79
2023/04/12 02:18:56;;;;;;;3.50;1.10;;;;;;;;;;5043691;27;94882;-80
2023/04/12 02:21:22;;;;;;;;;;;;;;;;;;5039985;28;95189;-80
2023/04/12 02:23:49;;;;;;;4.32;1.10;;;;;;;;;;5044047;27;114649;-81
2023/04/12 02:26:15;;;;;;;4.78;1.40;;;;;;;;;;5044992;27;94142;-81
2023/04/12 02:28:43;;;;;;;5.25;0.90;;;;;;;;;;5040218;27;92416;-80
2023/04/12 02:31:12;;;;;;;4.13;1.02;;;;;;;;;;5023838;27;94823;-81
2023/04/12 02:33:40;;;;;;;4.13;1.10;;;;;;;;;;5007259;28;91978;-81
2023/04/12 02:36:09;;;;;;;4.40;1.30;;;;;;;;;;5036171;27;92173;-80
2023/04/12 02:38:35;;;;;;;3.22;1.00;;;;;;;;;;5026542;28;94589;-81
2023/04/12 02:41:04;;;;;;;4.50;1.17;;;;;;;;;;5041055;27;97600;-80
2023/04/12 02:43:32;;;;;;;6.55;1.27;;;;;;;;;;5062013;27;92161;-80
2023/04/12 02:46:03;;;;;;;3.22;1.00;;;;;;;;;;5006087;27;95267;-79
2023/04/12 02:48:36;;;;;;;5.78;1.20;;;;;;;;;;5042881;28;95701;-79
2023/04/12 02:51:03;;;;;;;5.97;1.13;;;;;;;;;;5056177;27;93365;-79
2023/04/12 02:53:31;;;;;;;4.45;1.30;;;;;;;;;;5043110;27;94898;-80
2023/04/12 02:56:17;;;;;;;3.65;1.00;;;;;;;;;;5039459;27;92053;-79
2023/04/12 02:58:48;;;;;;;4.45;1.13;;;;;;;;;;5024268;28;95110;-79
2023/04/12 03:01:22;;;;;;;4.32;1.10;;;;;;;;;;5023395;28;93047;-80
2023/04/12 03:04:15;;;;;;;4.28;1.20;;;;;;;;;;5021460;27;93704;-79
2023/04/12 03:06:53;;;;;;;6.30;1.25;;;;;;;;;;5037882;27;95238;-80
2023/04/12 03:09:27;;;;;;;4.50;1.17;;;;;;;;;;5042421;27;94332;-80
2023/04/12 03:11:54;;;;;;;3.85;1.00;;;;;;;;;;5047552;27;92622;-80
2023/04/12 03:14:21;;;;;;;5.13;1.15;;;;;;;;;;5041112;27;92706;-79
2023/04/12 03:16:50;;;;;;;4.63;1.20;;;;;;;;;;5041751;27;92539;-80
2023/04/12 03:19:17;;;;;;;3.67;1.00;;;;;;;;;;5061144;27;92409;-80
2023/04/12 03:21:50;;;;;;;6.95;1.25;;;;;;;;;;5041853;27;94754;-81
2023/04/12 03:24:16;;;;;;;3.00;1.00;;;;;;;;;;5042700;27;91400;-81
2023/04/12 03:26:43;;;;;;;5.03;1.17;;;;;;;;;;5042032;27;94856;-80
2023/04/12 03:29:15;;;;;;;3.58;1.17;;;;;;;;;;5042504;27;93317;-80
2023/04/12 03:31:43;;;;;;;4.68;1.10;;;;;;;;;;5037191;27;94603;-80
2023/04/12 03:34:09;;;;;;;4.13;1.20;;;;;;;;;;5042350;27;96753;-80
2023/04/12 03:36:40;;;;;;;2.15;0.98;;;;;;;;;;5037823;27;92821;-81
2023/04/12 03:39:17;;;;;;;3.38;1.00;;;;;;;;;;5042421;27;95173;-80
2023/04/12 03:41:48;;;;;;;3.05;1.00;;;;;;;;;;5041886;27;94917;-82
2023/04/12 03:44:15;;;;;;;3.47;0.90;;;;;;;;;;5041664;27;92440;-81
2023/04/12 03:46:41;;;;;;;4.13;1.10;;;;;;;;;;5038605;27;94725;-81
2023/04/12 03:49:09;;;;;;;5.72;0.93;;;;;;;;;;5022528;28;94527;-80
2023/04/12 03:51:41;;;;;;;3.92;1.02;;;;;;;;;;5040253;27;92570;-81
2023/04/12 03:54:09;;;;;;;3.72;0.90;;;;;;;;;;5055256;27;95256;-79
2023/04/12 03:56:59;;;;;;;3.95;1.02;;;;;;;;;;5038214;27;96877;-81
2023/04/12 03:59:38;;;;;;;2.63;0.95;;;;;;;;;;5041528;27;97314;-81
2023/04/12 04:02:06;;;;;;;;;;;;;;;;;;5036372;27;94506;-80
2023/04/12 04:04:36;;;;;;;3.58;1.10;;;;;;;;;;5042901;27;92441;-81
2023/04/12 04:07:07;;;;;;;3.25;1.10;;;;;;;;;;5040880;27;94212;-82
2023/04/12 04:09:40;;;;;;;4.07;1.15;;;;;;;;;;5027719;27;94742;-81
2023/04/12 04:12:07;;;;;;;3.05;0.90;;;;;;;;;;5041832;27;92597;-81
2023/04/12 04:14:37;;;;;;;3.40;1.00;;;;;;;;;;5041936;27;92425;-78
2023/04/12 04:17:06;;;;;;;2.05;0.90;;;;;;;;;;5037739;27;92891;-79
2023/04/12 04:19:33;;;;;;;2.72;0.88;;;;;;;;;;5044343;27;92585;-80
2023/04/12 04:22:03;;;;;;;3.47;1.00;;;;;;;;;;5039312;27;97300;-81
2023/04/12 04:24:30;;;;;;;3.30;0.90;;;;;;;;;;5021857;28;93618;-81
2023/04/12 04:26:59;;;;;;;4.40;0.90;;;;;;;;;;5040802;27;95183;-80
2023/04/12 04:29:27;;;;;;;3.53;0.98;;;;;;;;;;5035840;28;95429;-80
2023/04/12 04:31:56;;;;;;;3.00;0.85;;;;;;;;;;5037501;28;92766;-80
2023/04/12 04:34:24;;;;;;;2.92;0.95;;;;;;;;;;5036691;27;92364;-79
2023/04/12 04:36:57;;;;;;;3.15;0.90;;;;;;;;;;5041143;27;93716;-80
2023/04/12 04:39:26;;;;;;;1.88;0.80;;;;;;;;;;5044982;27;91498;-80
2023/04/12 04:41:54;;;;;;;2.97;0.80;;;;;;;;;;5040314;27;94165;-81
2023/04/12 04:44:34;;;;;;;3.40;0.90;;;;;;;;;;5041579;27;92489;-81
2023/04/12 04:47:03;;;;;;;2.58;1.00;;;;;;;;;;5039579;27;94856;-81
2023/04/12 04:49:30;;;;;;;1.75;0.80;;;;;;;;;;5060012;27;93537;-80
2023/04/12 04:52:03;;;;;;;5.60;0.90;;;;;;;;;;5040689;27;92823;-79
2023/04/12 04:54:31;;;;;;;1.00;0.70;;;;;;;;;;5024839;27;94218;-81
2023/04/12 04:57:00;;;;;;;2.03;0.85;;;;;;;;;;5040469;27;95301;-80
2023/04/12 04:59:27;;;;;;;3.33;0.85;;;;;;;;;;5060231;27;92471;-80
2023/04/12 05:02:06;;;;;;;1.40;0.77;;;;;;;;;;5039927;27;93348;-80
2023/04/12 05:04:33;;;;;;;1.98;0.93;;;;;;;;;;5041837;27;91296;-79
2023/04/12 05:07:00;;;;;;;2.38;0.93;;;;;;;;;;5041370;27;92541;-79
2023/04/12 05:09:26;;;;;;;1.42;0.80;;;;;;;;;;5040593;27;94652;-79
2023/04/12 05:11:55;;;;;;;2.65;0.77;;;;;;;;;;5037524;27;95292;-79
2023/04/12 05:14:22;;;;;;;2.58;0.95;;;;;;;;;;5040339;27;97003;-79
2023/04/12 05:16:49;;;;;;;2.33;1.00;;;;;;;;;;5026697;28;95379;-79
2023/04/12 05:19:16;;;;;;;3.13;1.10;;;;;;;;;;5017335;27;92120;-79
2023/04/12 05:21:43;;;;;;;2.67;0.80;;;;;;;;;;5038799;27;92542;-80
2023/04/12 05:24:10;;;;;;;2.47;0.82;;;;;;;;;;5033884;27;94763;-78
2023/04/12 05:26:38;;;;;;;2.55;0.90;;;;;;;;;;5035917;27;94595;-79
2023/04/12 05:29:11;;;;;;;3.22;0.90;;;;;;;;;;5057874;27;94076;-79
2023/04/12 05:31:37;;;;;;;3.08;0.80;;;;;;;;;;5059213;27;92143;-79
2023/04/12 05:34:08;;;;;;;1.90;0.90;;;;;;;;;;5057135;27;92517;-78
2023/04/12 05:36:40;;;;;;;3.15;0.85;;;;;;;;;;5037996;27;97972;-79
2023/04/12 05:39:07;;;;;;;1.95;0.90;;;;;;;;;;5042171;27;92140;-81
2023/04/12 05:41:34;;;;;;;4.13;1.10;;;;;;;;;;5043472;27;95180;-81
2023/04/12 05:44:02;;;;;;;1.48;0.63;;;;;;;;;;5043425;27;95539;-80
2023/04/12 05:46:29;;;;;;;2.90;0.93;;;;;;;;;;5045782;27;93790;-80
2023/04/12 05:48:56;;;;;;;1.77;0.85;;;;;;;;;;5043651;27;95199;-80
2023/04/12 05:51:23;;;;;;;3.20;0.85;;;;;;;;;;5043629;27;92337;-79
2023/04/12 05:54:06;;;;;;;1.73;0.80;;;;;;;;;;5043669;27;94496;-79
2023/04/12 05:56:34;;;;;;;2.10;0.90;;;;;;;;;;5060885;27;94743;-79
2023/04/12 05:59:01;;;;;;;;;;;;;;;;;;5043900;27;92556;-80
2023/04/12 06:01:30;;;;;;;1.75;0.80;;;;;;;;;;5043614;27;94903;-81
2023/04/12 06:04:01;;;;;;;3.05;0.80;;;;;;;;;;5062004;27;92668;-81
2023/04/12 06:06:29;;;;;;;2.05;0.90;;;;;;;;;;5043104;27;93663;-81
2023/04/12 06:08:59;;;;;;;1.85;1.00;;;;;;;;;;5046639;27;95129;-81
2023/04/12 06:11:27;;;;;;;2.05;0.82;;;;;;;;;;5063974;27;92303;-80
2023/04/12 06:13:54;;;;;;;3.25;0.80;;;;;;;;;;5043452;27;92400;-80
2023/04/12 06:16:21;;;;;;;3.55;1.00;;;;;;;;;;5059464;27;92699;-80
2023/04/12 06:18:48;;;;;;;2.38;0.88;;;;;;;;;;5043840;27;91709;-79
2023/04/12 06:21:15;;;;;;;2.58;0.90;;;;;;;;;;5042533;27;92107;-79
2023/04/12 06:23:41;;;;;;;2.40;0.80;;;;;;;;;;5061144;27;93079;-79
2023/04/12 06:26:08;;;;;;;2.13;0.90;;;;;;;;;;5039674;27;94978;-79
2023/04/12 06:28:35;;;;;;;2.00;0.80;;;;;;;;;;5046221;27;97368;-80
2023/04/12 06:31:01;;;;;;;2.47;0.82;;;;;;;;;;5060755;27;92408;-79
2023/04/12 06:33:32;;;;;;;3.13;1.00;;;;;;;;;;5042843;27;93389;-80
2023/04/12 06:35:59;;;;;;;1.83;0.82;;;;;;;;;;5041923;27;95412;-80
2023/04/12 06:38:26;;;;;;;2.45;0.90;;;;;;;;;;5040951;27;92434;-79
2023/04/12 06:40:52;;;;;;;4.05;1.10;;;;;;;;;;5042669;27;92578;-78
2023/04/12 06:43:21;;;;;;;11.32;1.50;;;;;;;;;;5061770;27;92446;-78
2023/04/12 06:45:50;;;;;;;8.00;1.40;;;;;;;;;;5042363;27;92658;-77
2023/04/12 06:48:17;;;;;;;5.78;1.15;;;;;;;;;;5042394;27;92477;-79
2023/04/12 06:50:46;;;;;;;6.22;1.10;;;;;;;;;;5042606;27;97704;-79
2023/04/12 06:53:13;;;;;;;4.75;1.17;;;;;;;;;;5042668;27;94865;-79
2023/04/12 06:55:40;;;;;;;3.67;1.05;;;;;;;;;;5060328;27;92555;-78
2023/04/12 06:58:06;;;;;;;6.25;1.10;;;;;;;;;;5040963;27;92176;-78
2023/04/12 07:00:33;;;;;;;3.45;1.10;;;;;;;;;;5060534;27;92757;-77
2023/04/12 07:03:00;;;;;;;4.13;0.95;;;;;;;;;;5060133;27;92753;-78
2023/04/12 07:05:28;;;;;;;5.15;1.30;;;;;;;;;;5046673;27;92725;-78
2023/04/12 07:07:54;;;;;;;2.25;1.00;;;;;;;;;;5060942;27;92454;-78
2023/04/12 07:10:21;;;;;;;2.30;1.00;;;;;;;;;;5036948;27;92827;-78
2023/04/12 07:12:48;;;;;;;1.92;0.90;;;;;;;;;;5063496;27;92170;-78
2023/04/12 07:15:14;;;;;;;3.00;1.00;;;;;;;;;;5040132;27;97378;-78
2023/04/12 07:17:41;;;;;;;2.75;0.80;;;;;;;;;;5060318;27;92354;-78
2023/04/12 07:20:08;;;;;;;3.50;0.85;;;;;;;;;;5035177;27;95205;-79
2023/04/12 07:22:34;;;;;;;1.75;0.60;;;;;;;;;;5041957;27;93109;-78
2023/04/12 07:25:00;;;;;;;2.25;0.90;;;;;;;;;;5060415;27;92081;-78
2023/04/12 07:27:27;;;;;;;2.35;1.23;;;;;;;;;;5060526;27;92805;-78
2023/04/12 07:29:53;;;;;;;11.32;1.20;;;;;;;;;;5060086;27;93191;-78
2023/04/12 07:32:20;;;;;;;3.22;0.90;;;;;;;;;;5041117;27;91984;-78
2023/04/12 07:34:46;;;;;;;4.47;1.05;;;;;;;;;;5063911;27;92129;-78
2023/04/12 07:37:13;;;;;;;3.85;0.90;;;;;;;;;;5059980;27;92559;-79
2023/04/12 07:39:40;;;;;;;2.08;0.70;;;;;;;;;;5040414;27;94988;-79
2023/04/12 07:42:06;;;;;;;5.95;1.10;;;;;;;;;;5058439;27;92839;-78
2023/04/12 07:44:33;;;;;;;2.15;0.90;;;;;;;;;;5060553;27;92507;-78
2023/04/12 07:47:03;;;;;;;5.53;1.05;;;;;;;;;;5041393;27;92878;-78
2023/04/12 07:49:30;;;;;;;2.63;0.80;;;;;;;;;;5041519;27;93162;-78
2023/04/12 07:51:56;;;;;;;1.15;0.68;;;;;;;;;;5059563;27;92340;-78
2023/04/12 07:54:25;;;;;;;2.75;0.90;;;;;;;;;;5059540;27;92926;-79
2023/04/12 07:56:58;;;;;;;2.35;0.80;;;;;;;;;;5063523;27;92038;-79
2023/04/12 07:59:25;;;;;;;2.80;0.80;;;;;;;;;;5059977;27;92139;-80
2023/04/12 08:01:51;;;;;;;1.70;0.70;;;;;;;;;;5040948;27;93191;-79
2023/04/12 08:04:18;;;;;;;3.25;1.00;;;;;;;;;;5057518;27;94471;-79
2023/04/12 08:06:45;;;;;;;2.35;0.70;;;;;;;;;;5024970;27;96881;-79
2023/04/12 08:09:11;;;;;;;2.75;1.00;;;;;;;;;;5059345;27;92904;-80
2023/04/12 08:11:38;;;;;;;3.38;0.90;;;;;;;;;;5060857;27;95101;-80
2023/04/12 08:14:05;;;;;;;2.90;0.80;;;;;;;;;;5057546;27;94901;-79
2023/04/12 08:16:32;;;;;;;2.90;0.90;;;;;;;;;;5059205;27;93068;-80
2023/04/12 08:18:58;;;;;;;1.33;0.70;;;;;;;;;;5044829;27;92219;-81
2023/04/12 08:21:26;;;;;;;4.85;0.90;;;;;;;;;;5041701;27;92513;-80
2023/04/12 08:23:53;;;;;;;5.15;0.80;;;;;;;;;;5040722;27;92873;-79
2023/04/12 08:26:20;;;;;;;3.22;0.70;;;;;;;;;;5056406;27;92619;-79
2023/04/12 08:28:47;;;;;;;1.92;0.90;;;;;;;;;;5020632;27;97563;-79
2023/04/12 08:31:14;;;;;;;5.28;1.00;;;;;;;;;;5057539;27;92419;-79
2023/04/12 08:33:41;;;;;;;;;;;;;;;;;;5035407;28;94564;-79
2023/04/12 08:36:07;;;;;;;2.45;0.80;;;;;;;;;;5055221;27;116044;-79
2023/04/12 08:38:35;;;;;;;3.45;1.00;;;;;;;;;;5062914;27;92332;-79
2023/04/12 08:41:10;;;;;;;7.20;1.20;;;;;;;;;;5058022;27;92844;-81
2023/04/12 08:43:41;;;;;;;4.53;0.90;;;;;;;;;;5039561;27;92664;-80
2023/04/12 08:46:08;;;;;;;3.10;0.95;;;;;;;;;;5055911;27;93660;-80
2023/04/12 08:48:35;;;;;;;5.07;1.05;;;;;;;;;;5054970;27;93321;-79
2023/04/12 08:51:02;;;;;;;4.85;0.90;;;;;;;;;;5056405;27;93898;-80
2023/04/12 08:53:28;;;;;;;1.98;0.80;;;;;;;;;;5038272;27;95113;-80
2023/04/12 08:55:54;;;;;;;1.85;0.85;;;;;;;;;;5057104;27;94434;-79
2023/04/12 08:58:21;;;;;;;2.30;0.95;;;;;;;;;;5057014;27;92525;-79
2023/04/12 09:00:48;;;;;;;4.30;1.00;;;;;;;;;;5061127;27;92566;-78
2023/04/12 09:03:14;;;;;;;3.63;0.90;;;;;;;;;;5037065;27;92895;-79
2023/04/12 09:05:41;;;;;;;4.03;1.00;;;;;;;;;;5057718;27;92657;-79
2023/04/12 09:08:08;;;;;;;3.28;1.00;;;;;;;;;;5039096;27;94477;-79
2023/04/12 09:10:36;;;;;;;4.35;1.00;;;;;;;;;;5059330;27;92092;-79
2023/04/12 09:13:03;;;;;;;6.50;1.23;;;;;;;;;;5041496;27;93865;-80
2023/04/12 09:15:30;;;;;;;2.55;0.90;;;;;;;;;;5060900;27;93597;-79
2023/04/12 09:18:02;;;;;;;4.20;1.00;;;;;;;;;;5056398;27;94793;-80
2023/04/12 09:20:29;;;;;;;3.85;1.00;;;;;;;;;;5059715;27;99427;-80
2023/04/12 09:22:56;;;;;;;3.90;1.00;;;;;;;;;;5063008;27;92960;-80
2023/04/12 09:25:39;;;;;;;3.60;1.00;;;;;;;;;;5060664;27;92469;-80
2023/04/12 09:28:22;;;;;;;3.65;1.00;;;;;;;;;;5031167;27;93291;-80
2023/04/12 09:30:50;;;;;;;5.60;1.20;;;;;;;;;;5060410;27;92246;-80
2023/04/12 09:33:22;;;;;;;4.10;0.95;;;;;;;;;;5041725;27;92359;-79
2023/04/12 09:35:48;;;;;;;4.88;0.93;;;;;;;;;;5022793;27;91893;-80
2023/04/12 09:38:15;;;;;;;5.20;1.10;;;;;;;;;;5052261;27;92548;-80
2023/04/12 09:40:41;;;;;;;3.65;1.02;;;;;;;;;;5060564;27;96371;-81
2023/04/12 09:43:08;;;;;;;4.70;1.10;;;;;;;;;;5056516;27;95341;-80
2023/04/12 09:45:37;;;;;;;4.22;1.02;;;;;;;;;;5064582;27;92365;-80
2023/04/12 09:48:05;;;;;;;5.78;1.30;;;;;;;;;;5060724;27;93535;-79
2023/04/12 09:50:33;;;;;;;3.90;1.10;;;;;;;;;;5042657;27;92152;-78
2023/04/12 09:53:01;;;;;;;4.50;1.23;;;;;;;;;;5061207;27;92835;-78
2023/04/12 09:55:28;;;;;;;5.25;1.23;;;;;;;;;;5061238;27;93424;-79
2023/04/12 09:57:55;;;;;;;5.32;1.10;;;;;;;;;;5061432;27;92572;-79
2023/04/12 10:00:24;;;;;;;4.43;1.17;;;;;;;;;;5042191;27;94437;-79
2023/04/12 10:02:52;;;;;;;5.35;1.10;;;;;;;;;;5042525;27;93016;-80
2023/04/12 10:05:20;;;;;;;3.70;1.00;;;;;;;;;;5060642;27;92435;-79
2023/04/12 10:07:47;;;;;;;5.90;1.17;;;;;;;;;;5043773;27;94480;-80
2023/04/12 10:10:15;;;;;;;5.78;1.25;;;;;;;;;;5042253;27;92374;-80
2023/04/12 10:12:44;;;;;;;5.50;1.42;;;;;;;;;;5060619;27;92893;-81
2023/04/12 10:15:16;;;;;;;6.47;1.20;;;;;;;;;;5051480;27;92691;-82
2023/04/12 10:17:52;;;;;;;5.10;1.27;;;;;;;;;;5061175;27;92025;-81
2023/04/12 10:20:20;;;;;;;4.90;1.20;;;;;;;;;;5041365;27;94416;-81
2023/04/12 10:22:48;;;;;;;7.78;1.60;;;;;;;;;;5060751;27;93128;-81
2023/04/12 10:25:14;;;;;;;;;;;;;;;;;;5042347;27;91945;-81
2023/04/12 10:27:41;;;;;;;5.75;1.40;;;;;;;;;;5043625;27;105480;-82
2023/04/12 10:30:21;;;;;;;6.90;1.30;;;;;;;;;;5024694;28;94835;-80
2023/04/12 10:33:08;;;;;;;7.55;1.67;;;;;;;;;;5059019;27;94870;-81
2023/04/12 10:35:46;;;;;;;7.88;1.70;;;;;;;;;;5043388;27;92904;-81
2023/04/12 10:38:14;;;;;;;6.45;1.40;;;;;;;;;;5060639;27;92054;-79
2023/04/12 10:40:59;;;;;;;8.73;1.85;;;;;;;;;;5060798;27;92529;-79
2023/04/12 10:43:29;;;;;;;17.80;1.80;;;;;;;;;;5060808;27;92726;-81
2023/04/12 10:45:56;;;;;;;6.35;1.55;;;;;;;;;;5060397;27;92211;-81
2023/04/12 10:48:31;;;;;;;6.28;1.60;;;;;;;;;;5025188;27;95271;-83
2023/04/12 10:51:32;;;;;;;7.90;1.38;;;;;;;;;;5046096;27;94814;-85
2023/04/12 10:54:07;;;;;;;7.30;1.58;;;;;;;;;;4996214;27;93483;-83
2023/04/12 10:56:35;;;;;;;6.68;1.42;;;;;;;;;;5060557;27;92835;-83
2023/04/12 10:59:10;;;;;;;6.53;1.75;;;;;;;;;;5059187;27;94894;-84
2023/04/12 11:01:40;;;;;;;25.17;2.40;;;;;;;;;;5032849;27;97528;-81
2023/04/12 11:04:12;;;;;;;15.55;1.80;;;;;;;;;;5060279;27;92760;-81
2023/04/12 11:06:52;;;;;;;22.90;2.15;;;;;;;;;;5038974;27;92134;-81
2023/04/12 11:09:44;;;;;;;14.95;2.00;;;;;;;;;;5056975;27;93233;-81
2023/04/12 11:12:20;;;;;;;13.95;2.10;;;;;;;;;;5039188;27;94828;-80
2023/04/12 11:14:47;;;;;;;10.13;1.77;;;;;;;;;;5041462;27;95475;-81
2023/04/12 11:17:14;;;;;;;11.63;1.70;;;;;;;;;;5038499;27;91973;-81
2023/04/12 11:19:42;;;;;;;9.23;1.42;;;;;;;;;;5040195;27;92879;-81
2023/04/12 11:22:08;;;;;;;;;;;;;;;;;;5052790;27;92722;-82
2023/04/12 11:24:39;;;;;;;6.50;1.50;;;;;;;;;;5033930;28;122282;-83
2023/04/12 11:27:05;;;;;;;7.60;1.50;;;;;;;;;;5004924;27;92580;-82
2023/04/12 11:29:32;;;;;;;10.65;1.77;;;;;;;;;;5044060;27;93327;-80
2023/04/12 11:32:01;;;;;;;7.90;1.48;;;;;;;;;;5045002;27;93465;-81
2023/04/12 11:34:31;;;;;;;7.75;1.67;;;;;;;;;;5062014;27;92546;-81
2023/04/12 11:36:57;;;;;;;9.27;1.70;;;;;;;;;;5043845;27;92559;-81
2023/04/12 11:39:25;;;;;;;6.78;1.55;;;;;;;;;;5052146;27;92248;-81
2023/04/12 11:41:52;;;;;;;6.43;1.50;;;;;;;;;;5041128;27;94323;-82
2023/04/12 11:44:20;;;;;;;7.38;1.60;;;;;;;;;;5058687;27;92764;-81
2023/04/12 11:46:47;;;;;;;7.22;1.70;;;;;;;;;;5059004;27;92473;-83
2023/04/12 11:49:17;;;;;;;6.20;1.20;;;;;;;;;;5057459;27;94850;-82
2023/04/12 11:51:44;;;;;;;4.47;1.40;;;;;;;;;;5040828;27;95462;-83
2023/04/12 11:54:14;;;;;;;8.60;1.63;;;;;;;;;;5059098;27;92582;-83
2023/04/12 11:56:41;;;;;;;6.28;1.48;;;;;;;;;;5037389;27;93644;-84
2023/04/12 11:59:07;;;;;;;7.25;1.23;;;;;;;;;;5056062;27;93128;-83
2023/04/12 12:01:34;;;;;;;7.10;1.30;;;;;;;;;;5059370;27;93524;-83
2023/04/12 12:04:01;;;;;;;8.23;1.52;;;;;;;;;;5041382;27;92700;-84
2023/04/12 12:06:30;;;;;;;4.88;1.23;;;;;;;;;;5061337;27;91889;-82
2023/04/12 12:08:57;;;;;;;13.02;1.60;;;;;;;;;;5037171;28;93928;-81
2023/04/12 12:11:23;;;;;;;7.10;1.48;;;;;;;;;;5040830;27;92761;-81
2023/04/12 12:13:51;;;;;;;3.78;1.00;;;;;;;;;;5037654;27;94541;-81
2023/04/12 12:16:22;;;;;;;4.63;1.20;;;;;;;;;;5034884;27;95140;-82
2023/04/12 12:18:49;;;;;;;6.00;1.02;;;;;;;;;;5035180;27;93044;-82
2023/04/12 12:21:18;;;;;;;6.80;1.20;;;;;;;;;;5055597;27;92718;-82
2023/04/12 12:23:45;;;;;;;6.50;1.40;;;;;;;;;;5033874;27;93269;-82
2023/04/12 12:26:22;;;;;;;5.78;1.27;;;;;;;;;;5036055;27;92274;-82
2023/04/12 12:28:50;;;;;;;6.63;1.42;;;;;;;;;;5052824;27;95347;-82
2023/04/12 12:31:21;;;;;;;6.68;1.20;;;;;;;;;;5035269;27;93164;-83
2023/04/12 12:33:48;;;;;;;7.10;1.45;;;;;;;;;;5037621;27;92066;-82
2023/04/12 12:36:21;;;;;;;6.50;1.20;;;;;;;;;;5031394;27;92376;-82
2023/04/12 12:38:51;;;;;;;5.80;1.10;;;;;;;;;;5030081;27;95611;-82
2023/04/12 12:41:19;;;;;;;4.63;1.10;;;;;;;;;;5033668;27;92343;-82
2023/04/12 12:43:47;;;;;;;4.90;1.20;;;;;;;;;;5020233;28;94663;-82
2023/04/12 12:46:14;;;;;;;4.97;1.23;;;;;;;;;;5017299;27;92099;-82
2023/04/12 12:48:41;;;;;;;5.03;1.25;;;;;;;;;;5016874;28;95168;-82
2023/04/12 12:51:08;;;;;;;5.93;1.20;;;;;;;;;;5021212;28;92945;-82
2023/04/12 12:53:35;;;;;;;4.53;1.23;;;;;;;;;;5032320;28;92495;-83
2023/04/12 12:56:02;;;;;;;5.10;1.33;;;;;;;;;;5026039;27;92403;-80
2023/04/12 12:58:29;;;;;;;5.78;1.20;;;;;;;;;;5040421;27;92857;-81
2023/04/12 13:00:55;;;;;;;4.75;1.10;;;;;;;;;;5023768;27;92254;-84
2023/04/12 13:03:21;;;;;;;7.47;1.30;;;;;;;;;;5038197;27;94709;-83
2023/04/12 13:05:49;;;;;;;6.55;1.35;;;;;;;;;;5021157;28;92359;-83
2023/04/12 13:08:16;;;;;;;6.10;1.30;;;;;;;;;;5037217;27;94231;-83
2023/04/12 13:10:42;;;;;;;5.20;1.30;;;;;;;;;;5037940;27;92750;-83
2023/04/12 13:13:09;;;;;;;3.60;1.10;;;;;;;;;;5041392;27;92631;-83
2023/04/12 13:15:36;;;;;;;5.43;1.20;;;;;;;;;;5040955;27;92994;-83
2023/04/12 13:18:02;;;;;;;4.63;1.13;;;;;;;;;;5041020;27;93192;-82
2023/04/12 13:20:29;;;;;;;5.30;1.35;;;;;;;;;;5041836;27;91697;-82
2023/04/12 13:22:55;;;;;;;4.28;1.10;;;;;;;;;;5057183;27;92657;-83
2023/04/12 13:25:22;;;;;;;4.15;1.25;;;;;;;;;;5043422;28;92908;-83
2023/04/12 13:27:49;;;;;;;4.93;0.95;;;;;;;;;;5039420;27;95144;-83
2023/04/12 13:30:18;;;;;;;5.07;1.20;;;;;;;;;;5056270;27;92719;-82
2023/04/12 13:32:45;;;;;;;4.38;1.10;;;;;;;;;;5025044;28;92559;-82
2023/04/12 13:35:12;;;;;;;6.00;1.10;;;;;;;;;;5038559;28;92840;-83
2023/04/12 13:37:38;;;;;;;4.65;0.98;;;;;;;;;;5039597;27;93702;-82
2023/04/12 13:40:05;;;;;;;3.80;1.20;;;;;;;;;;5038476;27;92488;-82
2023/04/12 13:42:32;;;;;;;4.22;1.10;;;;;;;;;;5040510;27;93057;-82
2023/04/12 13:44:58;;;;;;;3.05;0.90;;;;;;;;;;5039129;28;92456;-82
2023/04/12 13:47:25;;;;;;;4.28;1.10;;;;;;;;;;5042110;27;92447;-82
2023/04/12 13:49:53;;;;;;;5.15;1.08;;;;;;;;;;5028117;27;93135;-82
2023/04/12 13:52:19;;;;;;;;;;;;;;;;;;5036096;27;94673;-82
2023/04/12 13:54:46;;;;;;;3.20;0.90;;;;;;;;;;5022789;28;112215;-82
2023/04/12 13:57:12;;;;;;;3.88;0.93;;;;;;;;;;5035801;27;92744;-83
2023/04/12 13:59:39;;;;;;;2.55;0.90;;;;;;;;;;5025772;28;92818;-82
2023/04/12 14:02:06;;;;;;;3.53;0.90;;;;;;;;;;5034042;28;92756;-82
2023/04/12 14:04:33;;;;;;;3.08;0.82;;;;;;;;;;5031934;28;92699;-82
2023/04/12 14:06:59;;;;;;;3.17;0.77;;;;;;;;;;5034548;28;94677;-82
2023/04/12 14:09:27;;;;;;;3.03;0.70;;;;;;;;;;5056288;27;92767;-81
2023/04/12 14:11:55;;;;;;;1.88;0.60;;;;;;;;;;5062608;27;92217;-82
2023/04/12 14:14:22;;;;;;;4.78;1.00;;;;;;;;;;5059807;27;92643;-80
2023/04/12 14:16:50;;;;;;;4.85;1.05;;;;;;;;;;5059020;27;95883;-81
2023/04/12 14:19:17;;;;;;;3.58;1.05;;;;;;;;;;5026434;27;92553;-81
2023/04/12 14:21:43;;;;;;;4.20;1.00;;;;;;;;;;5043083;27;92512;-82
2023/04/12 14:24:10;;;;;;;3.42;0.95;;;;;;;;;;5060567;27;92595;-82
2023/04/12 14:26:38;;;;;;;4.55;1.10;;;;;;;;;;5060405;27;92522;-82
2023/04/12 14:29:05;;;;;;;2.67;0.80;;;;;;;;;;5059788;27;92424;-82
2023/04/12 14:31:32;;;;;;;5.82;1.05;;;;;;;;;;5055820;27;94336;-81
2023/04/12 14:33:59;;;;;;;3.33;0.90;;;;;;;;;;5037397;27;95300;-81
2023/04/12 14:36:26;;;;;;;4.72;1.00;;;;;;;;;;5056874;27;92678;-81
2023/04/12 14:38:53;;;;;;;2.72;0.90;;;;;;;;;;5042418;27;92652;-83
2023/04/12 14:41:19;;;;;;;3.25;0.93;;;;;;;;;;5058653;27;95018;-84
2023/04/12 14:43:46;;;;;;;3.92;0.80;;;;;;;;;;5060387;27;93141;-82
2023/04/12 14:46:13;;;;;;;3.75;0.90;;;;;;;;;;5041166;27;92506;-82
2023/04/12 14:48:40;;;;;;;4.45;1.20;;;;;;;;;;5059894;27;93064;-82
2023/04/12 14:51:06;;;;;;;4.13;1.00;;;;;;;;;;5060006;27;93615;-81
2023/04/12 14:53:33;;;;;;;2.83;1.00;;;;;;;;;;5045073;27;92365;-81